Aérodrome :
LOGIN :

S'inscrire | Disclaimer

   EN    FR    IT 

 










Légende :    VFR   VFR Marginal   IFR   IFR Intensif   IFR Très Intensif
Visi : 
Plafond : 
>= 8 km
>= 3000ft
5 à 8 km
1000 à 3000 ft
1500m à 5 km
500 à 1000 ft
800 à 1500m
200 à 500 ft
< 800m
< 200 ft
Symboles :   Orages  Brouillard  Fortes neiges  Fortes précipitations  Vent > 20 kt
SIGMETs :   Divers  Orages  Givrage  Turbulence  Onde Orograph.  Cendres Volcan.







- Altitude de l'aérodrome : 100 ft


EBDT - Schaffen

METARs EXPIRÉS :
  • 241425Z AUTO 25007KT 9999 OVC029/// 20/13 Q1016 BLU
  • 241355Z AUTO 25011KT 9999 BKN027/// BKN031/// 20/13 Q1016 BLU
  • 241325Z AUTO 24012KT 9999 BKN026/// OVC030/// 20/13 Q1016 BLU
  • 241255Z AUTO 24010KT 9999 BKN024/// OVC029/// 20/13 Q1016 WHT
  • 241225Z AUTO 24010KT 9999 SCT023/// BKN027/// 19/13 Q1016 WHT
  • 241155Z AUTO 25010KT 9999 BKN023/// OVC027/// 19/14 Q1016 WHT

Prévision TAF périmée.
Pas de NOTAMs connus pour ce terrain.



MET'MAP, la Météo Aéronautique d'un coup d'oeil ! - Copyright ORBIFLY Décembre 2007 - Disclaimer

ORBIFLY MET'MAP TEAM :

Programmation & Développement : Alexandra Zaïnal
Conception & Développement : Baudouin d'Aumeries
Co-Programmation & Développement : Marc-Olivier Méhu
Soutien technique & logistique : Manuel Goepfert

Contact : metmap@orbifly.com




SOURCES & CREDITS :

   NOAA